sensor_id;sensor_type;location;lat;lon;timestamp;temperature;humidity
50989;DHT22;37008;52.210;21.112;2023-11-19T00:00:06;0.00;99.90
50989;DHT22;37008;52.210;21.112;2023-11-19T00:02:36;0.00;99.90
50989;DHT22;37008;52.210;21.112;2023-11-19T00:05:02;0.10;99.90
50989;DHT22;37008;52.210;21.112;2023-11-19T00:07:28;0.10;99.90
50989;DHT22;37008;52.210;21.112;2023-11-19T00:09:53;0.10;99.90
50989;DHT22;37008;52.210;21.112;2023-11-19T00:12:20;0.10;99.90
50989;DHT22;37008;52.210;21.112;2023-11-19T00:14:46;0.00;99.90
50989;DHT22;37008;52.210;21.112;2023-11-19T00:17:12;0.00;99.90
50989;DHT22;37008;52.210;21.112;2023-11-19T00:19:37;0.00;99.90
50989;DHT22;37008;52.210;21.112;2023-11-19T00:22:03;0.00;99.90
50989;DHT22;37008;52.210;21.112;2023-11-19T00:24:29;0.10;99.90
50989;DHT22;37008;52.210;21.112;2023-11-19T00:26:56;0.00;99.90
50989;DHT22;37008;52.210;21.112;2023-11-19T00:29:22;0.10;99.90
50989;DHT22;37008;52.210;21.112;2023-11-19T00:31:47;0.00;99.90
50989;DHT22;37008;52.210;21.112;2023-11-19T00:34:13;0.10;99.90
50989;DHT22;37008;52.210;21.112;2023-11-19T00:36:39;0.00;99.90
50989;DHT22;37008;52.210;21.112;2023-11-19T00:39:04;0.10;99.90
50989;DHT22;37008;52.210;21.112;2023-11-19T00:41:31;0.00;99.90
50989;DHT22;37008;52.210;21.112;2023-11-19T00:43:56;0.00;99.90
50989;DHT22;37008;52.210;21.112;2023-11-19T00:46:22;0.10;99.90
50989;DHT22;37008;52.210;21.112;2023-11-19T00:48:48;0.00;99.90
50989;DHT22;37008;52.210;21.112;2023-11-19T00:51:13;0.00;99.90
50989;DHT22;37008;52.210;21.112;2023-11-19T00:53:39;0.10;99.90
50989;DHT22;37008;52.210;21.112;2023-11-19T00:56:05;0.20;99.90
50989;DHT22;37008;52.210;21.112;2023-11-19T00:58:31;0.10;99.90
50989;DHT22;37008;52.210;21.112;2023-11-19T01:00:57;0.10;99.90
50989;DHT22;37008;52.210;21.112;2023-11-19T01:03:23;0.10;99.90
50989;DHT22;37008;52.210;21.112;2023-11-19T01:05:48;0.10;99.90
50989;DHT22;37008;52.210;21.112;2023-11-19T01:08:14;0.10;99.90
50989;DHT22;37008;52.210;21.112;2023-11-19T01:10:41;0.10;99.90
50989;DHT22;37008;52.210;21.112;2023-11-19T01:13:07;0.10;99.90
50989;DHT22;37008;52.210;21.112;2023-11-19T01:15:32;0.10;99.90
50989;DHT22;37008;52.210;21.112;2023-11-19T01:17:58;0.10;99.90
50989;DHT22;37008;52.210;21.112;2023-11-19T01:20:24;0.10;99.90
50989;DHT22;37008;52.210;21.112;2023-11-19T01:22:50;0.10;99.90
50989;DHT22;37008;52.210;21.112;2023-11-19T01:25:16;0.10;99.90
50989;DHT22;37008;52.210;21.112;2023-11-19T01:27:42;0.10;99.90
50989;DHT22;37008;52.210;21.112;2023-11-19T01:30:08;0.10;99.90
50989;DHT22;37008;52.210;21.112;2023-11-19T01:32:40;0.10;99.90
50989;DHT22;37008;52.210;21.112;2023-11-19T01:35:06;0.10;99.90
50989;DHT22;37008;52.210;21.112;2023-11-19T01:37:33;0.10;99.90
50989;DHT22;37008;52.210;21.112;2023-11-19T01:40:00;0.10;99.90
50989;DHT22;37008;52.210;21.112;2023-11-19T01:42:25;0.10;99.90
50989;DHT22;37008;52.210;21.112;2023-11-19T01:44:58;0.10;99.90
50989;DHT22;37008;52.210;21.112;2023-11-19T01:47:26;0.10;99.90
50989;DHT22;37008;52.210;21.112;2023-11-19T01:49:52;0.10;99.90
50989;DHT22;37008;52.210;21.112;2023-11-19T01:52:18;0.10;99.90
50989;DHT22;37008;52.210;21.112;2023-11-19T01:54:45;0.20;99.90
50989;DHT22;37008;52.210;21.112;2023-11-19T01:57:11;0.10;99.90
50989;DHT22;37008;52.210;21.112;2023-11-19T01:59:37;0.10;99.90
50989;DHT22;37008;52.210;21.112;2023-11-19T02:02:04;0.20;99.90
50989;DHT22;37008;52.210;21.112;2023-11-19T02:04:31;0.20;99.90
50989;DHT22;37008;52.210;21.112;2023-11-19T02:06:58;0.20;99.90
50989;DHT22;37008;52.210;21.112;2023-11-19T02:09:24;0.20;99.90
50989;DHT22;37008;52.210;21.112;2023-11-19T02:11:50;0.20;99.90
50989;DHT22;37008;52.210;21.112;2023-11-19T02:14:17;0.20;99.90
50989;DHT22;37008;52.210;21.112;2023-11-19T02:16:43;0.20;99.90
50989;DHT22;37008;52.210;21.112;2023-11-19T02:19:09;0.20;99.90
50989;DHT22;37008;52.210;21.112;2023-11-19T02:21:36;0.20;99.90
50989;DHT22;37008;52.210;21.112;2023-11-19T02:24:06;0.20;99.90
50989;DHT22;37008;52.210;21.112;2023-11-19T02:27:01;0.30;99.90
50989;DHT22;37008;52.210;21.112;2023-11-19T02:29:27;0.20;99.90
50989;DHT22;37008;52.210;21.112;2023-11-19T02:31:53;0.30;99.90
50989;DHT22;37008;52.210;21.112;2023-11-19T02:34:20;0.30;99.90
50989;DHT22;37008;52.210;21.112;2023-11-19T02:36:47;0.30;99.90
50989;DHT22;37008;52.210;21.112;2023-11-19T02:39:12;0.30;99.90
50989;DHT22;37008;52.210;21.112;2023-11-19T02:41:39;0.30;99.90
50989;DHT22;37008;52.210;21.112;2023-11-19T02:44:08;0.30;99.90
50989;DHT22;37008;52.210;21.112;2023-11-19T02:46:34;0.30;99.90
50989;DHT22;37008;52.210;21.112;2023-11-19T02:49:00;0.30;99.90
50989;DHT22;37008;52.210;21.112;2023-11-19T02:51:26;0.30;99.90
50989;DHT22;37008;52.210;21.112;2023-11-19T02:53:53;0.30;99.90
50989;DHT22;37008;52.210;21.112;2023-11-19T02:56:18;0.30;99.90
50989;DHT22;37008;52.210;21.112;2023-11-19T02:58:55;0.20;99.90
50989;DHT22;37008;52.210;21.112;2023-11-19T03:01:24;0.30;99.90
50989;DHT22;37008;52.210;21.112;2023-11-19T03:03:56;0.30;99.90
50989;DHT22;37008;52.210;21.112;2023-11-19T03:06:22;0.30;99.90
50989;DHT22;37008;52.210;21.112;2023-11-19T03:08:48;0.20;99.90
50989;DHT22;37008;52.210;21.112;2023-11-19T03:11:14;0.30;99.90
50989;DHT22;37008;52.210;21.112;2023-11-19T03:13:39;0.30;99.90
50989;DHT22;37008;52.210;21.112;2023-11-19T03:16:05;0.40;99.90
50989;DHT22;37008;52.210;21.112;2023-11-19T03:18:31;0.30;99.90
50989;DHT22;37008;52.210;21.112;2023-11-19T03:20:57;0.30;99.90
50989;DHT22;37008;52.210;21.112;2023-11-19T03:23:25;0.30;99.90
50989;DHT22;37008;52.210;21.112;2023-11-19T03:25:53;0.30;99.90
50989;DHT22;37008;52.210;21.112;2023-11-19T03:28:19;0.30;99.90
50989;DHT22;37008;52.210;21.112;2023-11-19T03:30:45;0.30;99.90
50989;DHT22;37008;52.210;21.112;2023-11-19T03:33:10;0.30;99.90
50989;DHT22;37008;52.210;21.112;2023-11-19T03:35:36;0.30;99.90
50989;DHT22;37008;52.210;21.112;2023-11-19T03:38:01;0.40;99.90
50989;DHT22;37008;52.210;21.112;2023-11-19T03:40:28;0.40;99.90
50989;DHT22;37008;52.210;21.112;2023-11-19T03:42:56;0.40;99.90
50989;DHT22;37008;52.210;21.112;2023-11-19T03:45:21;0.30;99.90
50989;DHT22;37008;52.210;21.112;2023-11-19T03:47:47;0.40;99.90
50989;DHT22;37008;52.210;21.112;2023-11-19T03:50:15;0.30;99.90
50989;DHT22;37008;52.210;21.112;2023-11-19T03:52:42;0.40;99.90
50989;DHT22;37008;52.210;21.112;2023-11-19T03:55:08;0.40;99.90
50989;DHT22;37008;52.210;21.112;2023-11-19T03:57:34;0.40;99.90
50989;DHT22;37008;52.210;21.112;2023-11-19T04:00:00;0.40;99.90
50989;DHT22;37008;52.210;21.112;2023-11-19T04:02:33;0.40;99.90
50989;DHT22;37008;52.210;21.112;2023-11-19T04:04:59;0.40;99.90
50989;DHT22;37008;52.210;21.112;2023-11-19T04:07:24;0.40;99.90
50989;DHT22;37008;52.210;21.112;2023-11-19T04:09:50;0.40;99.90
50989;DHT22;37008;52.210;21.112;2023-11-19T04:12:16;0.40;99.90
50989;DHT22;37008;52.210;21.112;2023-11-19T04:14:42;0.40;99.90
50989;DHT22;37008;52.210;21.112;2023-11-19T04:17:07;0.40;99.90
50989;DHT22;37008;52.210;21.112;2023-11-19T04:19:33;0.40;99.90
50989;DHT22;37008;52.210;21.112;2023-11-19T04:21:59;0.40;99.90
50989;DHT22;37008;52.210;21.112;2023-11-19T04:24:24;0.40;99.90
50989;DHT22;37008;52.210;21.112;2023-11-19T04:26:50;0.40;99.90
50989;DHT22;37008;52.210;21.112;2023-11-19T04:29:16;0.40;99.90
50989;DHT22;37008;52.210;21.112;2023-11-19T04:31:43;0.40;99.90
50989;DHT22;37008;52.210;21.112;2023-11-19T04:34:09;0.40;99.90
50989;DHT22;37008;52.210;21.112;2023-11-19T04:36:36;0.40;99.90
50989;DHT22;37008;52.210;21.112;2023-11-19T04:39:03;0.40;99.90
50989;DHT22;37008;52.210;21.112;2023-11-19T04:41:51;0.40;99.90
50989;DHT22;37008;52.210;21.112;2023-11-19T04:44:18;0.40;99.90
50989;DHT22;37008;52.210;21.112;2023-11-19T04:46:44;0.40;99.90
50989;DHT22;37008;52.210;21.112;2023-11-19T04:49:11;0.40;99.90
50989;DHT22;37008;52.210;21.112;2023-11-19T04:51:44;0.40;99.90
50989;DHT22;37008;52.210;21.112;2023-11-19T04:54:11;0.40;99.90
50989;DHT22;37008;52.210;21.112;2023-11-19T04:56:36;0.40;99.90
50989;DHT22;37008;52.210;21.112;2023-11-19T04:59:03;0.40;99.90
50989;DHT22;37008;52.210;21.112;2023-11-19T05:01:29;0.40;99.90
50989;DHT22;37008;52.210;21.112;2023-11-19T05:03:55;0.50;99.90
50989;DHT22;37008;52.210;21.112;2023-11-19T05:06:22;0.40;99.90
50989;DHT22;37008;52.210;21.112;2023-11-19T05:08:48;0.50;99.90
50989;DHT22;37008;52.210;21.112;2023-11-19T05:11:13;0.40;99.90
50989;DHT22;37008;52.210;21.112;2023-11-19T05:13:43;0.50;99.90
50989;DHT22;37008;52.210;21.112;2023-11-19T05:16:11;0.40;99.90
50989;DHT22;37008;52.210;21.112;2023-11-19T05:18:39;0.40;99.90
50989;DHT22;37008;52.210;21.112;2023-11-19T05:21:05;0.40;99.90
50989;DHT22;37008;52.210;21.112;2023-11-19T05:23:31;0.40;99.90
50989;DHT22;37008;52.210;21.112;2023-11-19T05:25:56;0.40;99.90
50989;DHT22;37008;52.210;21.112;2023-11-19T05:28:23;0.40;99.90
50989;DHT22;37008;52.210;21.112;2023-11-19T05:30:51;0.40;99.90
50989;DHT22;37008;52.210;21.112;2023-11-19T05:33:17;0.40;99.90
50989;DHT22;37008;52.210;21.112;2023-11-19T05:35:42;0.40;99.90
50989;DHT22;37008;52.210;21.112;2023-11-19T05:38:08;0.40;99.90
50989;DHT22;37008;52.210;21.112;2023-11-19T05:40:35;0.40;99.90
50989;DHT22;37008;52.210;21.112;2023-11-19T05:43:01;0.40;99.90
50989;DHT22;37008;52.210;21.112;2023-11-19T05:45:26;0.40;99.90
50989;DHT22;37008;52.210;21.112;2023-11-19T05:47:52;0.40;99.90
50989;DHT22;37008;52.210;21.112;2023-11-19T05:50:18;0.40;99.90
50989;DHT22;37008;52.210;21.112;2023-11-19T05:52:43;0.40;99.90
50989;DHT22;37008;52.210;21.112;2023-11-19T05:55:09;0.40;99.90
50989;DHT22;37008;52.210;21.112;2023-11-19T05:57:37;0.40;99.90
50989;DHT22;37008;52.210;21.112;2023-11-19T06:00:03;0.40;99.90
50989;DHT22;37008;52.210;21.112;2023-11-19T06:02:33;0.40;99.90
50989;DHT22;37008;52.210;21.112;2023-11-19T06:04:58;0.50;99.90
50989;DHT22;37008;52.210;21.112;2023-11-19T06:07:24;0.40;99.90
50989;DHT22;37008;52.210;21.112;2023-11-19T06:09:50;0.50;99.90
50989;DHT22;37008;52.210;21.112;2023-11-19T06:12:16;0.50;99.90
50989;DHT22;37008;52.210;21.112;2023-11-19T06:14:41;0.50;99.90
50989;DHT22;37008;52.210;21.112;2023-11-19T06:17:07;0.50;99.90
50989;DHT22;37008;52.210;21.112;2023-11-19T06:19:34;0.50;99.90
50989;DHT22;37008;52.210;21.112;2023-11-19T06:21:59;0.50;99.90
50989;DHT22;37008;52.210;21.112;2023-11-19T06:24:25;0.50;99.90
50989;DHT22;37008;52.210;21.112;2023-11-19T06:26:51;0.50;99.90
50989;DHT22;37008;52.210;21.112;2023-11-19T06:29:16;0.50;99.90
50989;DHT22;37008;52.210;21.112;2023-11-19T06:31:45;0.50;99.90
50989;DHT22;37008;52.210;21.112;2023-11-19T06:34:12;0.50;99.90
50989;DHT22;37008;52.210;21.112;2023-11-19T06:36:37;0.60;99.90
50989;DHT22;37008;52.210;21.112;2023-11-19T06:39:03;0.50;99.90
50989;DHT22;37008;52.210;21.112;2023-11-19T06:41:29;0.50;99.90
50989;DHT22;37008;52.210;21.112;2023-11-19T06:43:55;0.50;99.90
50989;DHT22;37008;52.210;21.112;2023-11-19T06:46:20;0.60;99.90
50989;DHT22;37008;52.210;21.112;2023-11-19T06:48:46;0.60;99.90
50989;DHT22;37008;52.210;21.112;2023-11-19T06:51:12;0.60;99.90
50989;DHT22;37008;52.210;21.112;2023-11-19T06:53:38;0.60;99.90
50989;DHT22;37008;52.210;21.112;2023-11-19T06:56:20;0.70;99.90
50989;DHT22;37008;52.210;21.112;2023-11-19T06:58:46;0.60;99.90
50989;DHT22;37008;52.210;21.112;2023-11-19T07:01:14;0.70;99.90
50989;DHT22;37008;52.210;21.112;2023-11-19T07:03:40;0.70;99.90
50989;DHT22;37008;52.210;21.112;2023-11-19T07:06:06;0.70;99.90
50989;DHT22;37008;52.210;21.112;2023-11-19T07:08:31;0.70;99.90
50989;DHT22;37008;52.210;21.112;2023-11-19T07:10:57;0.70;99.90
50989;DHT22;37008;52.210;21.112;2023-11-19T07:13:23;0.70;99.90
50989;DHT22;37008;52.210;21.112;2023-11-19T07:15:48;0.70;99.90
50989;DHT22;37008;52.210;21.112;2023-11-19T07:18:14;0.70;99.90
50989;DHT22;37008;52.210;21.112;2023-11-19T07:20:40;0.70;99.90
50989;DHT22;37008;52.210;21.112;2023-11-19T07:23:06;0.70;99.90
50989;DHT22;37008;52.210;21.112;2023-11-19T07:25:32;0.70;99.90
50989;DHT22;37008;52.210;21.112;2023-11-19T07:27:57;0.70;99.90
50989;DHT22;37008;52.210;21.112;2023-11-19T07:30:23;0.70;99.90
50989;DHT22;37008;52.210;21.112;2023-11-19T07:32:48;0.70;99.90
50989;DHT22;37008;52.210;21.112;2023-11-19T07:35:14;0.70;99.90
50989;DHT22;37008;52.210;21.112;2023-11-19T07:37:41;0.70;99.90
50989;DHT22;37008;52.210;21.112;2023-11-19T07:40:08;0.70;99.90
50989;DHT22;37008;52.210;21.112;2023-11-19T07:42:33;0.80;99.90
50989;DHT22;37008;52.210;21.112;2023-11-19T07:44:59;0.80;99.90
50989;DHT22;37008;52.210;21.112;2023-11-19T07:47:25;0.80;99.90
50989;DHT22;37008;52.210;21.112;2023-11-19T07:49:51;0.80;99.90
50989;DHT22;37008;52.210;21.112;2023-11-19T07:52:16;0.90;99.90
50989;DHT22;37008;52.210;21.112;2023-11-19T07:54:42;0.90;99.90
50989;DHT22;37008;52.210;21.112;2023-11-19T07:57:08;0.90;99.90
50989;DHT22;37008;52.210;21.112;2023-11-19T07:59:33;0.90;99.90
50989;DHT22;37008;52.210;21.112;2023-11-19T08:01:59;0.90;99.90
50989;DHT22;37008;52.210;21.112;2023-11-19T08:04:24;1.00;99.90
50989;DHT22;37008;52.210;21.112;2023-11-19T08:06:50;1.00;99.90
50989;DHT22;37008;52.210;21.112;2023-11-19T08:09:16;1.10;99.90
50989;DHT22;37008;52.210;21.112;2023-11-19T08:11:43;1.00;99.90
50989;DHT22;37008;52.210;21.112;2023-11-19T08:14:09;1.10;99.90
50989;DHT22;37008;52.210;21.112;2023-11-19T08:16:35;1.10;99.90
50989;DHT22;37008;52.210;21.112;2023-11-19T08:19:01;1.10;99.90
50989;DHT22;37008;52.210;21.112;2023-11-19T08:21:28;1.10;99.90
50989;DHT22;37008;52.210;21.112;2023-11-19T08:23:54;1.20;99.90
50989;DHT22;37008;52.210;21.112;2023-11-19T08:26:20;1.20;99.90
50989;DHT22;37008;52.210;21.112;2023-11-19T08:28:45;1.20;99.90
50989;DHT22;37008;52.210;21.112;2023-11-19T08:31:11;1.20;99.90
50989;DHT22;37008;52.210;21.112;2023-11-19T08:33:37;1.30;99.90
50989;DHT22;37008;52.210;21.112;2023-11-19T08:36:03;1.30;99.90
50989;DHT22;37008;52.210;21.112;2023-11-19T08:38:29;1.30;99.90
50989;DHT22;37008;52.210;21.112;2023-11-19T08:40:55;1.30;99.90
50989;DHT22;37008;52.210;21.112;2023-11-19T08:43:25;1.40;99.90
50989;DHT22;37008;52.210;21.112;2023-11-19T08:45:51;1.40;99.90
50989;DHT22;37008;52.210;21.112;2023-11-19T08:48:16;1.40;99.90
50989;DHT22;37008;52.210;21.112;2023-11-19T08:50:42;1.40;99.90
50989;DHT22;37008;52.210;21.112;2023-11-19T08:53:08;1.60;99.90
50989;DHT22;37008;52.210;21.112;2023-11-19T08:55:33;1.70;99.90
50989;DHT22;37008;52.210;21.112;2023-11-19T08:57:59;1.70;99.90
50989;DHT22;37008;52.210;21.112;2023-11-19T09:00:25;1.70;99.90
50989;DHT22;37008;52.210;21.112;2023-11-19T09:02:50;1.70;99.90
50989;DHT22;37008;52.210;21.112;2023-11-19T09:05:16;1.70;99.90
50989;DHT22;37008;52.210;21.112;2023-11-19T09:07:41;1.60;99.90
50989;DHT22;37008;52.210;21.112;2023-11-19T09:10:07;1.60;99.90
50989;DHT22;37008;52.210;21.112;2023-11-19T09:12:34;1.70;99.90
50989;DHT22;37008;52.210;21.112;2023-11-19T09:15:00;1.70;99.90
50989;DHT22;37008;52.210;21.112;2023-11-19T09:17:26;1.70;99.90
50989;DHT22;37008;52.210;21.112;2023-11-19T09:19:51;1.80;99.90
50989;DHT22;37008;52.210;21.112;2023-11-19T09:22:17;1.90;99.90
50989;DHT22;37008;52.210;21.112;2023-11-19T09:24:42;1.90;99.90
50989;DHT22;37008;52.210;21.112;2023-11-19T09:27:10;2.00;99.90
50989;DHT22;37008;52.210;21.112;2023-11-19T09:29:36;1.90;99.90
50989;DHT22;37008;52.210;21.112;2023-11-19T09:32:01;2.00;99.90
50989;DHT22;37008;52.210;21.112;2023-11-19T09:34:27;2.00;99.90
50989;DHT22;37008;52.210;21.112;2023-11-19T09:36:53;2.00;99.90
50989;DHT22;37008;52.210;21.112;2023-11-19T09:39:19;2.10;99.90
50989;DHT22;37008;52.210;21.112;2023-11-19T09:41:46;2.10;99.90
50989;DHT22;37008;52.210;21.112;2023-11-19T09:44:27;2.10;99.90
50989;DHT22;37008;52.210;21.112;2023-11-19T09:46:59;2.10;99.90
50989;DHT22;37008;52.210;21.112;2023-11-19T09:49:25;2.20;99.90
50989;DHT22;37008;52.210;21.112;2023-11-19T09:51:52;2.20;99.90
50989;DHT22;37008;52.210;21.112;2023-11-19T09:54:18;2.10;99.90
50989;DHT22;37008;52.210;21.112;2023-11-19T09:56:44;2.10;99.90
50989;DHT22;37008;52.210;21.112;2023-11-19T09:59:09;2.00;99.90
50989;DHT22;37008;52.210;21.112;2023-11-19T10:04:30;1.90;99.90
50989;DHT22;37008;52.210;21.112;2023-11-19T10:06:56;1.80;99.90
50989;DHT22;37008;52.210;21.112;2023-11-19T10:09:24;1.80;99.90
50989;DHT22;37008;52.210;21.112;2023-11-19T10:11:52;1.80;99.90
50989;DHT22;37008;52.210;21.112;2023-11-19T10:14:23;1.80;99.90
50989;DHT22;37008;52.210;21.112;2023-11-19T10:16:51;1.70;99.90
50989;DHT22;37008;52.210;21.112;2023-11-19T10:19:20;1.60;99.90
50989;DHT22;37008;52.210;21.112;2023-11-19T10:21:46;1.60;99.90
50989;DHT22;37008;52.210;21.112;2023-11-19T10:24:12;1.60;99.90
50989;DHT22;37008;52.210;21.112;2023-11-19T10:26:38;1.60;99.90
50989;DHT22;37008;52.210;21.112;2023-11-19T10:29:04;1.60;99.90
50989;DHT22;37008;52.210;21.112;2023-11-19T10:31:30;1.50;99.90
50989;DHT22;37008;52.210;21.112;2023-11-19T10:33:55;1.60;99.90
50989;DHT22;37008;52.210;21.112;2023-11-19T10:36:21;1.60;99.90
50989;DHT22;37008;52.210;21.112;2023-11-19T10:38:56;1.60;99.90
50989;DHT22;37008;52.210;21.112;2023-11-19T10:41:32;1.60;99.90
50989;DHT22;37008;52.210;21.112;2023-11-19T10:44:01;1.70;99.90
50989;DHT22;37008;52.210;21.112;2023-11-19T10:46:58;1.70;99.90
50989;DHT22;37008;52.210;21.112;2023-11-19T10:49:30;1.60;99.90
50989;DHT22;37008;52.210;21.112;2023-11-19T10:52:12;1.70;99.90
50989;DHT22;37008;52.210;21.112;2023-11-19T10:54:43;1.70;99.90
50989;DHT22;37008;52.210;21.112;2023-11-19T10:57:16;1.70;99.90
50989;DHT22;37008;52.210;21.112;2023-11-19T10:59:52;1.60;99.90
50989;DHT22;37008;52.210;21.112;2023-11-19T11:02:30;1.70;99.90
50989;DHT22;37008;52.210;21.112;2023-11-19T11:05:00;1.70;99.90
50989;DHT22;37008;52.210;21.112;2023-11-19T11:07:35;1.70;99.90
50989;DHT22;37008;52.210;21.112;2023-11-19T11:10:02;1.70;99.90
50989;DHT22;37008;52.210;21.112;2023-11-19T11:12:30;1.60;99.90
50989;DHT22;37008;52.210;21.112;2023-11-19T11:15:10;1.70;99.90
50989;DHT22;37008;52.210;21.112;2023-11-19T11:17:42;1.60;99.90
50989;DHT22;37008;52.210;21.112;2023-11-19T11:20:18;1.60;99.90
50989;DHT22;37008;52.210;21.112;2023-11-19T11:28:26;1.60;99.90
50989;DHT22;37008;52.210;21.112;2023-11-19T11:36:27;1.60;99.90
50989;DHT22;37008;52.210;21.112;2023-11-19T11:38:58;1.60;99.90
50989;DHT22;37008;52.210;21.112;2023-11-19T11:41:29;1.60;99.90
50989;DHT22;37008;52.210;21.112;2023-11-19T11:43:56;1.60;99.90
50989;DHT22;37008;52.210;21.112;2023-11-19T11:49:06;1.60;99.90
50989;DHT22;37008;52.210;21.112;2023-11-19T11:57:06;1.60;99.90
50989;DHT22;37008;52.210;21.112;2023-11-19T11:59:50;1.60;99.90
50989;DHT22;37008;52.210;21.112;2023-11-19T12:02:22;1.50;99.90
50989;DHT22;37008;52.210;21.112;2023-11-19T12:04:49;1.50;99.90
50989;DHT22;37008;52.210;21.112;2023-11-19T12:07:20;1.50;99.90
50989;DHT22;37008;52.210;21.112;2023-11-19T12:10:07;1.50;99.90
50989;DHT22;37008;52.210;21.112;2023-11-19T12:12:52;1.50;99.90
50989;DHT22;37008;52.210;21.112;2023-11-19T12:15:17;1.50;99.90
50989;DHT22;37008;52.210;21.112;2023-11-19T12:17:49;1.60;99.90
50989;DHT22;37008;52.210;21.112;2023-11-19T12:20:16;1.70;99.90
50989;DHT22;37008;52.210;21.112;2023-11-19T12:25:22;1.50;99.90
50989;DHT22;37008;52.210;21.112;2023-11-19T12:27:53;1.50;99.90
50989;DHT22;37008;52.210;21.112;2023-11-19T12:30:23;1.50;99.90
50989;DHT22;37008;52.210;21.112;2023-11-19T12:32:53;1.60;99.90
50989;DHT22;37008;52.210;21.112;2023-11-19T12:35:19;1.50;99.90
50989;DHT22;37008;52.210;21.112;2023-11-19T12:37:49;1.60;99.90
50989;DHT22;37008;52.210;21.112;2023-11-19T12:40:24;1.60;99.90
50989;DHT22;37008;52.210;21.112;2023-11-19T12:43:10;2.10;99.90
50989;DHT22;37008;52.210;21.112;2023-11-19T12:45:46;1.60;99.90
50989;DHT22;37008;52.210;21.112;2023-11-19T12:48:15;1.60;99.90
50989;DHT22;37008;52.210;21.112;2023-11-19T12:50:58;1.60;99.90
50989;DHT22;37008;52.210;21.112;2023-11-19T12:53:27;1.50;99.90
50989;DHT22;37008;52.210;21.112;2023-11-19T12:55:54;1.60;99.90
50989;DHT22;37008;52.210;21.112;2023-11-19T12:58:33;1.50;99.90
50989;DHT22;37008;52.210;21.112;2023-11-19T13:01:08;1.50;99.90
50989;DHT22;37008;52.210;21.112;2023-11-19T13:04:03;1.50;99.90
50989;DHT22;37008;52.210;21.112;2023-11-19T13:07:04;1.40;99.90
50989;DHT22;37008;52.210;21.112;2023-11-19T13:09:50;1.40;99.90
50989;DHT22;37008;52.210;21.112;2023-11-19T13:15:41;1.30;99.90
50989;DHT22;37008;52.210;21.112;2023-11-19T13:18:10;1.40;99.90
50989;DHT22;37008;52.210;21.112;2023-11-19T13:20:44;1.30;99.90
50989;DHT22;37008;52.210;21.112;2023-11-19T13:23:10;1.30;99.90
50989;DHT22;37008;52.210;21.112;2023-11-19T13:25:36;1.30;99.90
50989;DHT22;37008;52.210;21.112;2023-11-19T13:28:03;1.30;99.90
50989;DHT22;37008;52.210;21.112;2023-11-19T13:30:29;1.30;99.90
50989;DHT22;37008;52.210;21.112;2023-11-19T13:32:55;1.30;99.90
50989;DHT22;37008;52.210;21.112;2023-11-19T13:35:23;1.60;99.90
50989;DHT22;37008;52.210;21.112;2023-11-19T13:37:56;1.20;99.90
50989;DHT22;37008;52.210;21.112;2023-11-19T13:40:28;1.20;99.90
50989;DHT22;37008;52.210;21.112;2023-11-19T13:42:54;0.70;99.90
50989;DHT22;37008;52.210;21.112;2023-11-19T13:45:25;1.10;99.90
50989;DHT22;37008;52.210;21.112;2023-11-19T13:47:51;1.10;99.90
50989;DHT22;37008;52.210;21.112;2023-11-19T13:50:16;1.10;99.90
50989;DHT22;37008;52.210;21.112;2023-11-19T13:52:48;1.10;99.90
50989;DHT22;37008;52.210;21.112;2023-11-19T13:55:14;1.10;99.90
50989;DHT22;37008;52.210;21.112;2023-11-19T13:57:45;1.30;99.90
50989;DHT22;37008;52.210;21.112;2023-11-19T14:00:14;1.00;99.90
50989;DHT22;37008;52.210;21.112;2023-11-19T14:02:48;1.00;99.90
50989;DHT22;37008;52.210;21.112;2023-11-19T14:05:17;1.00;99.90
50989;DHT22;37008;52.210;21.112;2023-11-19T14:07:43;1.00;99.90
50989;DHT22;37008;52.210;21.112;2023-11-19T14:10:10;1.00;99.90
50989;DHT22;37008;52.210;21.112;2023-11-19T14:12:37;1.00;99.90
50989;DHT22;37008;52.210;21.112;2023-11-19T14:15:04;1.00;99.90
50989;DHT22;37008;52.210;21.112;2023-11-19T14:17:32;1.00;99.90
50989;DHT22;37008;52.210;21.112;2023-11-19T14:19:57;1.00;99.90
50989;DHT22;37008;52.210;21.112;2023-11-19T14:22:23;0.90;99.90
50989;DHT22;37008;52.210;21.112;2023-11-19T14:24:50;1.00;99.90
50989;DHT22;37008;52.210;21.112;2023-11-19T14:27:15;0.90;99.90
50989;DHT22;37008;52.210;21.112;2023-11-19T14:29:43;1.00;99.90
50989;DHT22;37008;52.210;21.112;2023-11-19T14:32:10;0.90;99.90
50989;DHT22;37008;52.210;21.112;2023-11-19T14:34:35;0.90;99.90
50989;DHT22;37008;52.210;21.112;2023-11-19T14:37:01;0.90;99.90
50989;DHT22;37008;52.210;21.112;2023-11-19T14:39:27;0.90;99.90
50989;DHT22;37008;52.210;21.112;2023-11-19T14:41:54;1.00;99.90
50989;DHT22;37008;52.210;21.112;2023-11-19T14:44:25;0.90;99.90
50989;DHT22;37008;52.210;21.112;2023-11-19T14:46:51;0.90;99.90
50989;DHT22;37008;52.210;21.112;2023-11-19T14:49:19;0.90;99.90
50989;DHT22;37008;52.210;21.112;2023-11-19T14:51:54;0.90;99.90
50989;DHT22;37008;52.210;21.112;2023-11-19T14:54:22;0.90;99.90
50989;DHT22;37008;52.210;21.112;2023-11-19T14:57:02;0.90;99.90
50989;DHT22;37008;52.210;21.112;2023-11-19T14:59:36;0.80;99.90
50989;DHT22;37008;52.210;21.112;2023-11-19T15:02:07;0.80;99.90
50989;DHT22;37008;52.210;21.112;2023-11-19T15:04:37;0.80;99.90
50989;DHT22;37008;52.210;21.112;2023-11-19T15:07:12;1.30;99.90
50989;DHT22;37008;52.210;21.112;2023-11-19T15:09:43;0.90;99.90
50989;DHT22;37008;52.210;21.112;2023-11-19T15:12:09;0.80;99.90
50989;DHT22;37008;52.210;21.112;2023-11-19T15:14:44;0.80;99.90
50989;DHT22;37008;52.210;21.112;2023-11-19T15:17:09;0.90;99.90
50989;DHT22;37008;52.210;21.112;2023-11-19T15:19:53;0.80;99.90
50989;DHT22;37008;52.210;21.112;2023-11-19T15:22:19;0.80;99.90
50989;DHT22;37008;52.210;21.112;2023-11-19T15:24:47;0.80;99.90
50989;DHT22;37008;52.210;21.112;2023-11-19T15:27:15;0.80;99.90
50989;DHT22;37008;52.210;21.112;2023-11-19T15:29:41;0.80;99.90
50989;DHT22;37008;52.210;21.112;2023-11-19T15:32:07;0.80;99.90
50989;DHT22;37008;52.210;21.112;2023-11-19T15:34:33;0.80;99.90
50989;DHT22;37008;52.210;21.112;2023-11-19T15:37:03;0.80;99.90
50989;DHT22;37008;52.210;21.112;2023-11-19T15:39:32;0.70;99.90
50989;DHT22;37008;52.210;21.112;2023-11-19T15:41:59;0.70;99.90
50989;DHT22;37008;52.210;21.112;2023-11-19T15:44:25;0.70;99.90
50989;DHT22;37008;52.210;21.112;2023-11-19T15:46:50;0.70;99.90
50989;DHT22;37008;52.210;21.112;2023-11-19T15:49:16;0.80;99.90
50989;DHT22;37008;52.210;21.112;2023-11-19T15:51:42;0.70;99.90
50989;DHT22;37008;52.210;21.112;2023-11-19T15:54:11;0.70;99.90
50989;DHT22;37008;52.210;21.112;2023-11-19T15:56:36;0.70;99.90
50989;DHT22;37008;52.210;21.112;2023-11-19T15:59:02;0.70;99.90
50989;DHT22;37008;52.210;21.112;2023-11-19T16:01:30;0.70;99.90